Time;durP1;ratioP1;P1;durP2;ratioP2;P2;SDS_P1;SDS_P2;PMS_P1;PMS_P2;Temp;Humidity;BMP_temperature;BMP_pressure;BME280_temperature;BME280_humidity;BME280_pressure;Samples;Min_cycle;Max_cycle;Signal;HPM_P1;HPM_P2
2024/04/14 00:01:52;;;;;;;10.63;5.53;;;17.60;1.00;;;;;;5528947;25;20450;-58
2024/04/14 00:04:19;;;;;;;6.70;5.40;;;17.50;1.00;;;;;;5528676;25;20495;-58
2024/04/14 00:06:48;;;;;;;10.27;4.93;;;17.50;1.00;;;;;;5528696;25;20514;-58
2024/04/14 00:09:14;;;;;;;10.57;6.13;;;17.50;1.00;;;;;;5528824;25;20510;-59
2024/04/14 00:11:43;;;;;;;9.63;5.67;;;17.40;1.00;;;;;;5528615;25;20458;-58
2024/04/14 00:14:12;;;;;;;6.63;5.03;;;17.40;1.00;;;;;;5528277;25;21029;-59
2024/04/14 00:16:43;;;;;;;6.37;4.70;;;17.30;1.00;;;;;;5528537;25;20463;-58
2024/04/14 00:19:09;;;;;;;6.80;4.67;;;17.30;1.00;;;;;;5528242;25;20967;-57
2024/04/14 00:21:38;;;;;;;5.70;4.10;;;17.20;1.00;;;;;;5528524;25;20572;-58
2024/04/14 00:24:05;;;;;;;6.17;4.50;;;17.10;99.90;;;;;;5528442;25;20754;-58
2024/04/14 00:26:34;;;;;;;6.13;4.43;;;17.10;99.90;;;;;;5528337;25;20545;-57
2024/04/14 00:29:00;;;;;;;4.57;3.83;;;17.10;99.90;;;;;;5528384;25;20443;-58
2024/04/14 00:31:32;;;;;;;7.40;4.80;;;17.00;99.90;;;;;;5528267;25;20451;-58
2024/04/14 00:33:59;;;;;;;5.23;4.17;;;16.90;99.90;;;;;;5528307;25;20493;-58
2024/04/14 00:36:27;;;;;;;4.80;4.23;;;16.80;99.90;;;;;;5527997;25;20521;-57
2024/04/14 00:38:54;;;;;;;4.93;4.30;;;16.80;99.90;;;;;;5528155;25;20503;-58
2024/04/14 00:41:22;;;;;;;6.50;4.40;;;16.70;99.90;;;;;;5528619;25;20809;-58
2024/04/14 00:43:49;;;;;;;5.03;4.00;;;16.60;99.90;;;;;;5528745;25;20459;-57
2024/04/14 00:46:18;;;;;;;4.33;3.93;;;16.50;99.90;;;;;;5531730;25;20530;-57
2024/04/14 00:48:47;;;;;;;6.03;4.10;;;16.40;99.90;;;;;;5531692;25;20459;-57
2024/04/14 00:51:19;;;;;;;5.33;3.97;;;16.40;99.90;;;;;;5531695;25;20489;-57
2024/04/14 00:53:45;;;;;;;4.40;3.80;;;16.30;99.90;;;;;;5531692;25;20451;-57
2024/04/14 00:56:14;;;;;;;4.57;3.43;;;16.20;1.00;;;;;;5531449;25;20903;-57
2024/04/14 00:58:41;;;;;;;3.33;2.97;;;16.10;1.00;;;;;;5531552;25;20566;-58
2024/04/14 01:01:10;;;;;;;3.40;3.10;;;16.00;99.90;;;;;;5531239;25;20924;-57
2024/04/14 01:03:36;;;;;;;5.97;3.37;;;16.00;1.00;;;;;;5531642;25;20518;-57
2024/04/14 01:06:08;;;;;;;5.93;3.30;;;15.90;99.90;;;;;;5531265;25;20462;-58
2024/04/14 01:08:35;;;;;;;4.37;3.33;;;15.80;99.90;;;;;;5531294;25;20491;-57
2024/04/14 01:11:04;;;;;;;4.00;2.57;;;15.70;99.90;;;;;;5531307;25;20816;-59
2024/04/14 01:13:30;;;;;;;4.37;2.90;;;15.70;99.90;;;;;;5531614;25;20764;-57
2024/04/14 01:15:59;;;;;;;8.53;2.73;;;15.60;99.90;;;;;;5531074;25;20503;-57
2024/04/14 01:18:25;;;;;;;5.80;2.80;;;15.50;99.90;;;;;;5531187;25;20877;-58
2024/04/14 01:20:54;;;;;;;4.13;2.60;;;15.40;99.90;;;;;;5531218;25;20458;-58
2024/04/14 01:23:24;;;;;;;5.70;2.40;;;15.40;99.90;;;;;;5531381;25;20500;-57
2024/04/14 01:25:57;;;;;;;2.67;2.30;;;15.30;99.90;;;;;;5531265;25;20517;-57
2024/04/14 01:28:24;;;;;;;2.37;2.10;;;15.20;99.90;;;;;;5531012;25;20895;-57
2024/04/14 01:30:53;;;;;;;3.87;2.20;;;15.10;99.90;;;;;;5530986;25;20458;-57
2024/04/14 01:33:19;;;;;;;3.73;2.67;;;15.10;99.90;;;;;;5531210;25;20454;-58
2024/04/14 01:35:48;;;;;;;2.97;2.20;;;15.00;99.90;;;;;;5531059;25;20562;-57
2024/04/14 01:38:14;;;;;;;4.60;2.53;;;15.00;99.90;;;;;;5530679;25;20499;-57
2024/04/14 01:40:43;;;;;;;5.43;2.77;;;15.00;99.90;;;;;;5530890;25;20565;-57
2024/04/14 01:43:12;;;;;;;5.40;2.83;;;14.90;99.90;;;;;;5531002;25;20564;-57
2024/04/14 01:45:41;;;;;;;3.60;2.90;;;14.80;99.90;;;;;;5530987;25;20455;-57
2024/04/14 01:48:09;;;;;;;3.40;2.50;;;14.70;99.90;;;;;;5531010;25;20501;-57
2024/04/14 01:50:39;;;;;;;4.53;3.20;;;14.70;99.90;;;;;;5530387;25;20459;-58
2024/04/14 01:53:06;;;;;;;4.43;2.80;;;14.60;99.90;;;;;;5530806;25;20907;-58
2024/04/14 01:55:35;;;;;;;3.70;2.80;;;14.60;99.90;;;;;;5529276;25;20396;-57
2024/04/14 01:58:01;;;;;;;5.10;2.37;;;14.50;99.90;;;;;;5530601;25;20458;-57
2024/04/14 02:00:33;;;;;;;6.37;2.57;;;14.50;99.90;;;;;;5530609;25;20757;-57
2024/04/14 02:03:00;;;;;;;5.03;2.97;;;14.50;99.90;;;;;;5530635;25;20499;-57
2024/04/14 02:05:29;;;;;;;5.67;3.33;;;14.40;99.90;;;;;;5530611;25;20450;-58
2024/04/14 02:07:55;;;;;;;3.23;2.40;;;14.40;99.90;;;;;;5530777;25;20507;-57
2024/04/14 02:10:24;;;;;;;6.30;3.17;;;14.40;99.90;;;;;;5530147;25;20514;-57
2024/04/14 02:12:50;;;;;;;3.77;3.13;;;14.30;99.90;;;;;;5530467;25;20507;-57
2024/04/14 02:15:20;;;;;;;5.50;2.90;;;14.30;99.90;;;;;;5530453;25;20565;-57
2024/04/14 02:17:48;;;;;;;6.13;2.97;;;14.30;99.90;;;;;;5530415;25;20400;-58
2024/04/14 02:20:18;;;;;;;3.60;2.80;;;14.20;99.90;;;;;;5530069;25;20820;-57
2024/04/14 02:22:44;;;;;;;5.00;2.90;;;14.10;99.90;;;;;;5530304;25;20435;-57
2024/04/14 02:25:14;;;;;;;4.20;2.90;;;14.10;99.90;;;;;;5530283;25;20720;-58
2024/04/14 02:27:40;;;;;;;7.40;2.73;;;14.00;99.90;;;;;;5530172;25;20596;-57
2024/04/14 02:30:10;;;;;;;5.97;3.50;;;14.00;99.90;;;;;;5529820;25;20459;-57
2024/04/14 02:32:38;;;;;;;4.87;3.50;;;14.00;99.90;;;;;;5530215;25;20498;-58
2024/04/14 02:35:10;;;;;;;5.60;3.60;;;14.00;99.90;;;;;;5530133;25;20454;-57
2024/04/14 02:37:37;;;;;;;4.03;2.97;;;13.90;99.90;;;;;;5529445;25;20601;-57
2024/04/14 02:40:08;;;;;;;5.70;3.03;;;13.90;99.90;;;;;;5529858;25;20455;-57
2024/04/14 02:42:35;;;;;;;5.30;3.10;;;13.80;99.90;;;;;;5529894;25;20900;-57
2024/04/14 02:45:04;;;;;;;5.40;3.17;;;13.80;99.90;;;;;;5529924;25;20470;-57
2024/04/14 02:47:30;;;;;;;8.37;4.27;;;13.80;99.90;;;;;;5530069;25;20458;-57
2024/04/14 02:49:59;;;;;;;3.90;2.60;;;13.80;1.00;;;;;;5529592;25;20495;-57
2024/04/14 02:52:27;;;;;;;4.73;2.87;;;13.80;1.00;;;;;;5529391;25;20810;-57
2024/04/14 02:54:57;;;;;;;5.00;2.63;;;13.90;99.90;;;;;;5529742;25;20451;-57
2024/04/14 02:57:24;;;;;;;4.43;3.20;;;13.80;1.00;;;;;;5529860;25;20451;-57
2024/04/14 02:59:52;;;;;;;9.43;3.10;;;13.80;99.90;;;;;;5529285;25;20561;-57
2024/04/14 03:02:19;;;;;;;3.37;2.93;;;13.80;1.00;;;;;;5529505;25;20900;-57
2024/04/14 03:04:50;;;;;;;7.00;3.37;;;13.70;1.00;;;;;;5529680;25;20555;-57
2024/04/14 03:07:16;;;;;;;7.10;3.60;;;13.70;1.00;;;;;;5529133;25;20807;-57
2024/04/14 03:09:48;;;;;;;5.10;3.10;;;13.70;99.90;;;;;;5529673;25;20719;-57
2024/04/14 03:12:14;;;;;;;6.80;3.90;;;13.70;99.90;;;;;;5529414;25;20818;-57
2024/04/14 03:14:43;;;;;;;3.17;2.83;;;13.60;1.00;;;;;;5529639;25;20416;-58
2024/04/14 03:17:09;;;;;;;4.90;3.50;;;13.60;1.00;;;;;;5529772;25;20451;-57
2024/04/14 03:19:38;;;;;;;5.63;3.30;;;13.50;1.00;;;;;;5529685;25;20450;-56
2024/04/14 03:22:04;;;;;;;7.10;3.37;;;13.50;1.00;;;;;;5529178;25;20518;-58
2024/04/14 03:24:35;;;;;;;8.40;3.23;;;13.50;1.00;;;;;;5529366;25;20455;-57
2024/04/14 03:27:04;;;;;;;6.20;3.00;;;13.40;1.00;;;;;;5529535;25;20391;-57
2024/04/14 03:29:33;;;;;;;4.40;3.20;;;13.40;1.00;;;;;;5529691;25;20494;-57
2024/04/14 03:31:59;;;;;;;4.83;3.23;;;13.30;1.00;;;;;;5529114;25;20384;-57
2024/04/14 03:34:28;;;;;;;8.53;4.10;;;13.20;1.00;;;;;;5529206;25;20463;-57
2024/04/14 03:37:00;;;;;;;8.33;3.50;;;13.20;1.00;;;;;;5528980;25;20420;-57
2024/04/14 03:39:28;;;;;;;6.77;3.53;;;13.20;1.00;;;;;;5528951;25;20531;-56
2024/04/14 03:41:55;;;;;;;6.43;3.30;;;13.10;1.00;;;;;;5528918;25;20555;-57
2024/04/14 03:44:26;;;;;;;8.30;3.40;;;13.10;1.00;;;;;;5529023;25;20511;-57
2024/04/14 03:46:55;;;;;;;5.67;2.93;;;13.20;1.00;;;;;;5529185;25;20459;-57
2024/04/14 03:49:25;;;;;;;4.70;3.20;;;13.20;1.00;;;;;;5528937;25;20455;-58
2024/04/14 03:51:51;;;;;;;8.17;3.50;;;13.20;1.00;;;;;;5528965;25;20504;-57
2024/04/14 03:54:20;;;;;;;6.73;3.90;;;13.20;1.00;;;;;;5528899;25;20497;-57
2024/04/14 03:56:46;;;;;;;6.90;3.77;;;13.20;99.90;;;;;;5528926;25;20751;-57
2024/04/14 03:59:15;;;;;;;5.20;3.00;;;13.30;1.00;;;;;;5529111;25;20946;-57
2024/04/14 04:01:44;;;;;;;8.23;3.90;;;13.30;1.00;;;;;;5528978;25;20454;-57
2024/04/14 04:04:13;;;;;;;6.00;3.60;;;13.30;99.90;;;;;;5528833;25;20536;-57
2024/04/14 04:06:39;;;;;;;4.43;3.60;;;13.40;99.90;;;;;;5528664;25;20451;-57
2024/04/14 04:09:08;;;;;;;7.40;4.20;;;13.40;1.00;;;;;;5528868;25;20543;-57
2024/04/14 04:11:35;;;;;;;7.60;3.50;;;13.30;1.00;;;;;;5528680;25;20440;-58
2024/04/14 04:14:04;;;;;;;6.10;3.90;;;13.30;1.00;;;;;;5528509;25;20916;-57
2024/04/14 04:16:30;;;;;;;7.90;4.70;;;13.30;99.90;;;;;;5528502;25;20458;-56
2024/04/14 04:19:02;;;;;;;7.10;3.80;;;13.20;99.90;;;;;;5529472;25;20558;-58
2024/04/14 04:21:28;;;;;;;5.90;3.30;;;13.20;99.90;;;;;;5532275;25;20981;-57
2024/04/14 04:23:57;;;;;;;13.47;4.10;;;13.20;1.00;;;;;;5531705;25;20819;-57
2024/04/14 04:26:23;;;;;;;6.80;3.93;;;13.20;1.00;;;;;;5532040;25;20751;-58
2024/04/14 04:28:52;;;;;;;6.70;4.47;;;13.20;1.00;;;;;;5532047;25;20995;-57
2024/04/14 04:31:18;;;;;;;7.97;4.37;;;13.20;1.00;;;;;;5532329;25;20672;-57
2024/04/14 04:33:47;;;;;;;10.03;4.87;;;13.30;4.40;;;;;;5532090;25;20459;-58
2024/04/14 04:36:17;;;;;;;9.40;4.77;;;13.20;79.50;;;;;;5531668;25;20452;-57
2024/04/14 04:38:46;;;;;;;6.10;4.20;;;13.30;99.90;;;;;;5531743;25;20507;-57
2024/04/14 04:41:12;;;;;;;8.13;4.30;;;13.30;99.90;;;;;;5531855;25;20564;-57
2024/04/14 04:43:42;;;;;;;8.40;4.37;;;13.30;99.90;;;;;;5531665;25;20441;-57
2024/04/14 04:46:08;;;;;;;7.17;4.60;;;13.20;99.90;;;;;;5531338;25;20959;-58
2024/04/14 04:48:38;;;;;;;11.10;5.00;;;13.20;99.90;;;;;;5531390;25;20498;-58
2024/04/14 04:51:04;;;;;;;11.30;5.30;;;13.20;99.90;;;;;;5531634;25;20436;-57
2024/04/14 04:53:36;;;;;;;6.87;5.10;;;13.20;99.90;;;;;;5531469;25;20442;-57
2024/04/14 04:56:02;;;;;;;6.97;4.90;;;13.10;99.90;;;;;;5531022;25;20446;-57
2024/04/14 04:58:31;;;;;;;5.83;4.40;;;13.10;99.90;;;;;;5531251;25;20505;-57
2024/04/14 05:00:57;;;;;;;6.67;4.27;;;13.10;99.90;;;;;;5531119;25;20459;-57
2024/04/14 05:03:26;;;;;;;7.10;4.50;;;13.10;99.90;;;;;;5531202;25;20451;-57
2024/04/14 05:05:56;;;;;;;7.40;4.60;;;13.20;99.90;;;;;;5531398;25;20438;-57
2024/04/14 05:08:26;;;;;;;10.50;4.80;;;13.10;99.90;;;;;;5531316;25;20459;-57
2024/04/14 05:10:55;;;;;;;12.30;5.30;;;13.10;99.90;;;;;;5531272;25;20522;-57
2024/04/14 05:13:25;;;;;;;9.57;5.30;;;13.10;1.00;;;;;;5531512;25;20757;-57
2024/04/14 05:15:52;;;;;;;8.43;4.83;;;13.10;1.00;;;;;;5531320;25;20509;-57
2024/04/14 05:18:21;;;;;;;9.20;5.50;;;13.00;99.90;;;;;;5531246;25;20408;-58
2024/04/14 05:20:47;;;;;;;8.23;4.87;;;13.00;99.90;;;;;;5531350;25;21039;-57
2024/04/14 05:23:16;;;;;;;9.93;4.93;;;13.00;99.90;;;;;;5531653;25;20392;-57
2024/04/14 05:25:43;;;;;;;9.90;5.63;;;13.00;1.00;;;;;;5531321;25;20506;-56
2024/04/14 05:28:15;;;;;;;6.23;5.63;;;12.90;99.90;;;;;;5531226;25;20526;-57
2024/04/14 05:30:41;;;;;;;10.30;5.40;;;12.90;1.00;;;;;;5530168;25;20392;-57
2024/04/14 05:33:10;;;;;;;11.07;5.47;;;13.00;99.90;;;;;;5531109;25;20809;-57
2024/04/14 05:35:37;;;;;;;6.17;4.80;;;13.00;1.00;;;;;;5531245;25;20455;-57
2024/04/14 05:38:06;;;;;;;11.23;6.10;;;13.10;1.00;;;;;;5530743;25;20435;-57
2024/04/14 05:40:32;;;;;;;10.60;5.17;;;13.10;1.00;;;;;;5531006;25;20453;-57
2024/04/14 05:43:01;;;;;;;10.77;5.50;;;13.10;1.00;;;;;;5530958;25;20783;-57
2024/04/14 05:45:30;;;;;;;10.53;6.10;;;13.20;1.00;;;;;;5531052;25;20792;-57
2024/04/14 05:47:59;;;;;;;7.73;5.00;;;13.30;1.00;;;;;;5530776;25;20852;-57
2024/04/14 05:50:25;;;;;;;8.23;5.07;;;13.20;1.00;;;;;;5530717;25;20474;-57
2024/04/14 05:52:54;;;;;;;7.23;5.03;;;13.10;6.20;;;;;;5530674;25;20455;-57
2024/04/14 05:55:20;;;;;;;10.33;5.73;;;13.00;70.50;;;;;;5530979;25;20943;-57
2024/04/14 05:57:49;;;;;;;13.10;6.07;;;13.10;1.00;;;;;;5530769;25;20572;-57
2024/04/14 06:00:16;;;;;;;6.63;4.90;;;13.10;1.00;;;;;;5530543;25;20451;-58
2024/04/14 06:02:47;;;;;;;7.73;5.23;;;13.20;1.00;;;;;;5530527;25;20466;-58
2024/04/14 06:05:14;;;;;;;11.57;4.83;;;13.20;1.00;;;;;;5530714;25;20392;-58
2024/04/14 06:07:42;;;;;;;13.50;6.17;;;13.30;1.00;;;;;;5530711;25;20580;-57
2024/04/14 06:10:09;;;;;;;12.50;6.00;;;13.40;1.00;;;;;;5530612;25;20486;-58
2024/04/14 06:12:38;;;;;;;8.03;5.83;;;13.40;99.90;;;;;;5530377;25;20467;-57
2024/04/14 06:15:05;;;;;;;7.70;5.40;;;13.40;1.00;;;;;;5530552;25;20476;-57
2024/04/14 06:17:34;;;;;;;15.17;6.33;;;13.60;1.00;;;;;;5530034;25;20474;-57
2024/04/14 06:20:03;;;;;;;10.50;5.80;;;13.60;89.90;;;;;;5530189;25;20459;-58
2024/04/14 06:22:32;;;;;;;8.33;5.53;;;13.50;39.40;;;;;;5529987;25;20521;-57
2024/04/14 06:24:58;;;;;;;16.37;7.60;;;13.40;41.40;;;;;;5530355;25;20904;-57
2024/04/14 06:27:27;;;;;;;10.17;6.17;;;13.50;49.40;;;;;;5530482;25;20500;-58
2024/04/14 06:29:54;;;;;;;9.77;5.93;;;13.60;1.00;;;;;;5530006;25;20503;-57
2024/04/14 06:32:23;;;;;;;8.10;5.93;;;13.70;1.00;;;;;;5529935;25;20467;-58
2024/04/14 06:34:49;;;;;;;8.80;6.20;;;13.80;99.90;;;;;;5530126;25;20431;-58
2024/04/14 06:37:21;;;;;;;14.70;7.13;;;13.90;1.00;;;;;;5530210;25;20860;-58
2024/04/14 06:39:47;;;;;;;12.77;7.20;;;14.10;17.50;;;;;;5530338;25;20455;-57
2024/04/14 06:42:16;;;;;;;14.47;6.20;;;14.20;99.90;;;;;;5528854;25;20498;-57
2024/04/14 06:44:42;;;;;;;14.10;6.10;;;14.00;66.60;;;;;;5529762;25;20459;-58
2024/04/14 06:47:11;;;;;;;8.60;6.37;;;14.00;1.00;;;;;;5530091;25;20467;-57
2024/04/14 06:49:37;;;;;;;11.77;6.63;;;13.80;1.00;;;;;;5530074;25;20450;-58
2024/04/14 06:52:07;;;;;;;12.50;7.03;;;13.90;11.40;;;;;;5529598;25;20459;-58
2024/04/14 06:54:36;;;;;;;13.00;6.20;;;14.00;99.90;;;;;;5529298;25;20523;-57
2024/04/14 06:57:05;;;;;;;13.30;6.27;;;13.80;1.00;;;;;;5529861;25;20836;-57
2024/04/14 06:59:32;;;;;;;10.57;6.10;;;13.80;99.90;;;;;;5529873;25;20489;-57
2024/04/14 07:02:01;;;;;;;11.27;6.87;;;14.00;1.00;;;;;;5529428;25;20572;-57
2024/04/14 07:04:27;;;;;;;8.33;6.23;;;14.10;1.00;;;;;;5529765;25;20455;-58
2024/04/14 07:06:56;;;;;;;11.17;6.20;;;14.30;1.00;;;;;;5529774;25;20462;-57
2024/04/14 07:09:22;;;;;;;11.80;6.50;;;14.20;99.90;;;;;;5529938;25;20392;-57
2024/04/14 07:11:55;;;;;;;8.60;6.10;;;14.40;1.00;;;;;;5529731;25;20963;-57
2024/04/14 07:14:21;;;;;;;11.13;6.00;;;14.60;1.00;;;;;;5529604;25;20497;-57
2024/04/14 07:16:50;;;;;;;14.37;7.10;;;14.70;1.00;;;;;;5529587;25;20511;-57
2024/04/14 07:19:16;;;;;;;12.07;6.20;;;14.90;1.00;;;;;;5529373;25;20507;-58
2024/04/14 07:21:45;;;;;;;11.13;6.60;;;15.10;1.00;;;;;;5529695;25;20451;-56
2024/04/14 07:24:12;;;;;;;9.63;6.20;;;15.10;1.00;;;;;;5529441;25;20908;-57
2024/04/14 07:26:41;;;;;;;9.00;5.23;;;14.80;99.90;;;;;;5529429;25;20455;-56
2024/04/14 07:29:10;;;;;;;8.73;5.87;;;14.90;99.90;;;;;;5529325;25;20440;-58
2024/04/14 07:31:39;;;;;;;8.50;5.27;;;15.00;99.90;;;;;;5529328;25;20451;-58
2024/04/14 07:34:05;;;;;;;11.73;6.43;;;15.20;1.00;;;;;;5529117;25;20463;-57
2024/04/14 07:36:35;;;;;;;9.80;6.00;;;15.10;99.90;;;;;;5529708;25;20474;-57
2024/04/14 07:39:01;;;;;;;11.70;7.07;;;15.40;99.90;;;;;;5529671;25;20451;-57
2024/04/14 07:41:32;;;;;;;12.77;6.87;;;15.70;20.50;;;;;;5530040;25;20497;-58
2024/04/14 07:43:58;;;;;;;9.80;6.53;;;15.30;95.10;;;;;;5528208;25;20459;-58
2024/04/14 07:46:30;;;;;;;14.10;5.90;;;15.10;99.90;;;;;;5527538;25;20470;-58
2024/04/14 07:48:56;;;;;;;11.57;7.40;;;14.80;99.90;;;;;;5528177;25;20891;-57
2024/04/14 07:51:25;;;;;;;11.57;6.80;;;14.90;99.90;;;;;;5528408;25;20478;-56
2024/04/14 07:53:52;;;;;;;12.20;6.83;;;15.30;99.90;;;;;;5528962;25;20439;-58
2024/04/14 07:56:21;;;;;;;14.80;7.80;;;15.60;99.90;;;;;;5529120;25;20476;-56
2024/04/14 07:58:48;;;;;;;13.47;8.37;;;15.90;1.00;;;;;;5528985;25;20897;-56
2024/04/14 08:01:17;;;;;;;14.47;8.10;;;16.10;61.20;;;;;;5529030;25;20860;-58
2024/04/14 08:03:46;;;;;;;11.80;7.00;;;16.30;1.00;;;;;;5529158;25;20494;-57
2024/04/14 08:06:15;;;;;;;11.73;6.80;;;15.80;4.20;;;;;;5528677;25;20601;-57
2024/04/14 08:08:42;;;;;;;10.40;5.43;;;16.00;99.90;;;;;;5528653;25;20462;-57
2024/04/14 08:11:11;;;;;;;8.33;5.20;;;16.20;99.90;;;;;;5528681;25;20507;-57
2024/04/14 08:13:38;;;;;;;8.10;5.10;;;16.10;1.00;;;;;;5528643;25;20446;-58
2024/04/14 08:16:08;;;;;;;6.77;4.00;;;16.20;1.00;;;;;;5528497;25;20564;-58
2024/04/14 08:18:34;;;;;;;5.33;4.00;;;16.00;99.90;;;;;;5528410;25;20462;-57
2024/04/14 08:21:06;;;;;;;11.00;4.30;;;15.90;99.90;;;;;;5528458;25;20458;-58
2024/04/14 08:23:32;;;;;;;7.23;4.30;;;15.90;11.70;;;;;;5528874;25;20494;-57
2024/04/14 08:26:03;;;;;;;10.43;4.70;;;16.00;63.50;;;;;;5528230;25;20540;-57
2024/04/14 08:28:30;;;;;;;7.27;4.07;;;16.30;99.90;;;;;;5528230;25;20791;-57
2024/04/14 08:30:59;;;;;;;7.57;4.20;;;16.50;99.90;;;;;;5528178;25;20919;-57
2024/04/14 08:33:26;;;;;;;6.97;4.00;;;16.70;77.90;;;;;;5528342;25;20443;-57
2024/04/14 08:35:55;;;;;;;7.63;4.60;;;16.90;84.50;;;;;;5527971;25;20459;-58
2024/04/14 08:38:24;;;;;;;7.23;4.77;;;16.80;2.50;;;;;;5528266;25;20667;-58
2024/04/14 08:40:56;;;;;;;8.50;4.07;;;17.20;99.90;;;;;;5528034;25;20458;-59
2024/04/14 08:43:22;;;;;;;5.87;3.57;;;17.10;1.00;;;;;;5528254;25;20451;-57
2024/04/14 08:45:53;;;;;;;4.90;3.10;;;17.10;1.00;;;;;;5527982;25;20534;-58
2024/04/14 08:48:20;;;;;;;5.23;3.13;;;17.50;1.00;;;;;;5527619;25;20451;-58
2024/04/14 08:50:50;;;;;;;4.97;3.30;;;17.70;99.90;;;;;;5526068;25;20515;-58
2024/04/14 08:53:18;;;;;;;3.77;2.50;;;16.80;99.90;;;;;;5527999;25;20447;-57
2024/04/14 08:55:50;;;;;;;6.13;3.00;;;16.30;99.90;;;;;;5528057;25;20474;-57
2024/04/14 08:58:20;;;;;;;8.27;3.60;;;16.60;99.90;;;;;;5527704;25;20503;-59
2024/04/14 09:00:55;;;;;;;6.17;3.40;;;16.60;99.90;;;;;;5527122;25;20463;-58
2024/04/14 09:03:25;;;;;;;10.13;4.30;;;16.00;99.90;;;;;;5524956;25;21125;-58
2024/04/14 09:05:53;;;;;;;13.00;4.90;;;16.10;1.00;;;;;;5526834;25;20563;-58
2024/04/14 09:08:24;;;;;;;11.90;3.60;;;16.70;99.90;;;;;;5528378;25;20533;-58
2024/04/14 09:10:53;;;;;;;5.43;3.47;;;17.30;99.90;;;;;;5528460;25;21068;-58
2024/04/14 09:13:25;;;;;;;6.90;4.03;;;18.10;99.90;;;;;;5528554;25;20466;-59
2024/04/14 09:15:54;;;;;;;6.67;4.20;;;18.10;99.90;;;;;;5528534;25;20878;-58
2024/04/14 09:18:23;;;;;;;10.43;3.37;;;18.10;99.90;;;;;;5531154;25;20455;-59
2024/04/14 09:20:49;;;;;;;5.83;3.50;;;18.00;99.90;;;;;;5530875;25;20458;-57
2024/04/14 09:23:18;;;;;;;5.60;3.20;;;18.30;99.90;;;;;;5531314;25;20914;-58
2024/04/14 09:25:45;;;;;;;5.37;3.40;;;17.90;99.90;;;;;;5531385;25;20512;-57
2024/04/14 09:28:18;;;;;;;5.27;3.20;;;17.90;99.90;;;;;;5531040;25;20466;-57
2024/04/14 09:30:45;;;;;;;5.53;3.50;;;18.20;99.90;;;;;;5531167;25;20454;-58
2024/04/14 09:33:15;;;;;;;6.57;4.00;;;18.30;99.90;;;;;;5531194;25;20751;-58
2024/04/14 09:35:47;;;;;;;7.63;3.80;;;18.60;99.90;;;;;;5531058;25;20494;-58
2024/04/14 09:38:16;;;;;;;5.40;4.17;;;18.90;99.90;;;;;;5530884;25;20826;-58
2024/04/14 09:40:43;;;;;;;6.87;3.90;;;18.60;99.90;;;;;;5530895;25;20444;-58
2024/04/14 09:43:18;;;;;;;4.53;3.13;;;18.10;99.90;;;;;;5531071;25;21032;-58
2024/04/14 09:45:45;;;;;;;6.37;4.50;;;17.50;99.90;;;;;;5531322;25;21335;-58
2024/04/14 09:48:17;;;;;;;6.93;3.60;;;17.30;99.90;;;;;;5530726;25;20454;-56
2024/04/14 09:50:44;;;;;;;5.60;3.40;;;17.00;99.90;;;;;;5530741;25;20503;-57
2024/04/14 09:53:14;;;;;;;4.73;3.50;;;16.90;99.90;;;;;;5530727;25;20555;-57
2024/04/14 09:55:41;;;;;;;7.50;4.33;;;16.90;99.90;;;;;;5530670;25;20880;-57
2024/04/14 09:58:10;;;;;;;8.50;3.90;;;17.10;1.00;;;;;;5530387;25;20499;-57
2024/04/14 10:00:40;;;;;;;6.07;3.70;;;16.90;1.00;;;;;;5530426;25;20841;-57
2024/04/14 10:03:10;;;;;;;6.23;3.73;;;16.60;99.90;;;;;;5530535;25;20507;-57
2024/04/14 10:05:39;;;;;;;6.40;3.80;;;16.80;99.90;;;;;;5530434;25;20816;-57
2024/04/14 10:08:10;;;;;;;6.63;3.80;;;16.90;1.00;;;;;;5529342;25;20451;-57
2024/04/14 10:10:40;;;;;;;8.37;3.70;;;17.10;1.00;;;;;;5530208;25;20890;-58
2024/04/14 10:13:09;;;;;;;9.83;3.50;;;17.00;99.90;;;;;;5530233;25;20443;-57
2024/04/14 10:15:47;;;;;;;7.73;3.60;;;17.20;1.00;;;;;;5530316;25;20979;-56
2024/04/14 10:18:15;;;;;;;6.37;4.03;;;17.40;1.00;;;;;;5529125;25;20439;-56
2024/04/14 10:20:46;;;;;;;7.13;3.53;;;17.20;99.90;;;;;;5530289;25;20454;-56
2024/04/14 10:23:17;;;;;;;7.33;3.80;;;17.20;99.90;;;;;;5530423;25;20956;-56
2024/04/14 10:25:50;;;;;;;6.63;3.63;;;17.30;99.90;;;;;;5530553;25;20537;-56
2024/04/14 10:28:17;;;;;;;8.13;3.60;;;18.10;99.90;;;;;;5530089;25;20451;-58
2024/04/14 10:30:51;;;;;;;6.70;3.67;;;18.50;99.90;;;;;;5530070;25;20971;-57
2024/04/14 10:33:21;;;;;;;6.10;3.90;;;19.30;99.90;;;;;;5530279;25;20450;-57
2024/04/14 10:36:01;;;;;;;6.60;3.17;;;19.60;99.90;;;;;;5529936;25;20509;-57
2024/04/14 10:38:29;;;;;;;7.10;3.50;;;19.70;99.90;;;;;;5529590;25;20454;-57
2024/04/14 10:40:59;;;;;;;4.67;2.70;;;19.80;99.90;;;;;;5528212;25;20503;-57
2024/04/14 10:43:26;;;;;;;4.67;3.23;;;19.30;99.90;;;;;;5528611;25;20455;-56
2024/04/14 10:46:02;;;;;;;5.90;3.50;;;18.90;99.90;;;;;;5529280;25;20801;-55
2024/04/14 10:48:29;;;;;;;4.23;3.13;;;19.00;99.90;;;;;;5528753;25;20581;-58
2024/04/14 10:51:00;;;;;;;7.50;4.00;;;19.20;99.90;;;;;;5529503;25;20472;-56
2024/04/14 10:53:29;;;;;;;3.70;3.13;;;18.20;90.60;;;;;;5529832;25;20455;-56
2024/04/14 10:55:59;;;;;;;7.80;3.40;;;18.00;90.70;;;;;;5529389;25;20463;-56
2024/04/14 10:58:28;;;;;;;8.33;4.17;;;17.80;99.90;;;;;;5529410;25;20455;-57
2024/04/14 11:01:02;;;;;;;4.93;2.80;;;18.10;99.90;;;;;;5523429;26;20525;-57
2024/04/14 11:03:29;;;;;;;7.80;3.67;;;18.00;99.90;;;;;;5527930;25;20455;-57
2024/04/14 11:05:59;;;;;;;8.13;3.00;;;17.70;99.90;;;;;;5524888;25;20531;-57
2024/04/14 11:08:27;;;;;;;6.50;3.10;;;17.30;99.90;;;;;;5524130;25;20517;-57
2024/04/14 11:11:00;;;;;;;6.13;3.70;;;17.20;99.90;;;;;;5525136;25;20466;-57
2024/04/14 11:13:29;;;;;;;4.83;3.20;;;17.50;99.90;;;;;;5522887;25;20538;-58
2024/04/14 11:16:06;;;;;;;4.50;3.00;;;17.60;99.90;;;;;;5525493;25;20478;-56
2024/04/14 11:18:35;;;;;;;6.27;3.20;;;17.30;99.90;;;;;;5527560;25;20570;-58
2024/04/14 11:21:04;;;;;;;5.87;3.47;;;17.20;99.90;;;;;;5525310;25;20446;-56
2024/04/14 11:23:31;;;;;;;7.00;3.53;;;16.80;99.90;;;;;;5526588;25;20459;-57
2024/04/14 11:26:00;;;;;;;4.73;3.23;;;16.90;99.90;;;;;;5524482;25;20573;-57
2024/04/14 11:28:29;;;;;;;4.93;2.80;;;16.80;99.90;;;;;;5522015;25;20797;-58
2024/04/14 11:30:59;;;;;;;3.40;2.87;;;16.50;99.90;;;;;;5522212;25;20566;-57
2024/04/14 11:33:28;;;;;;;5.00;2.83;;;16.90;99.90;;;;;;5521145;25;20799;-58
2024/04/14 11:36:00;;;;;;;3.70;2.90;;;17.40;99.90;;;;;;5522591;25;20447;-57
2024/04/14 11:38:28;;;;;;;5.33;3.70;;;17.30;99.90;;;;;;5525477;25;20995;-58
2024/04/14 11:40:57;;;;;;;6.70;3.40;;;17.40;99.90;;;;;;5525672;25;20506;-58
2024/04/14 11:43:24;;;;;;;5.03;3.70;;;17.80;99.90;;;;;;5525125;25;20507;-57
2024/04/14 11:45:53;;;;;;;5.80;3.00;;;17.80;99.90;;;;;;5525352;25;20463;-57
2024/04/14 11:48:20;;;;;;;5.47;3.10;;;17.80;99.90;;;;;;5525999;25;20455;-58
2024/04/14 11:50:51;;;;;;;5.93;3.20;;;18.00;99.90;;;;;;5525256;25;20467;-58
2024/04/14 11:53:18;;;;;;;7.80;3.57;;;18.30;99.90;;;;;;5526115;25;20447;-57
2024/04/14 11:55:48;;;;;;;5.47;3.43;;;18.80;99.90;;;;;;5524481;25;20471;-57
2024/04/14 11:58:16;;;;;;;4.10;3.10;;;19.00;99.90;;;;;;5524688;25;20454;-55
2024/04/14 12:00:45;;;;;;;5.10;3.50;;;19.70;99.90;;;;;;5525638;25;20543;-59
2024/04/14 12:03:12;;;;;;;7.97;3.20;;;19.30;99.90;;;;;;5526647;25;20455;-58
2024/04/14 12:05:41;;;;;;;5.77;3.60;;;18.80;69.70;;;;;;5526151;25;20447;-56
2024/04/14 12:08:10;;;;;;;5.63;3.60;;;18.20;39.70;;;;;;5524299;25;20756;-58
2024/04/14 12:10:39;;;;;;;7.07;3.57;;;18.00;26.00;;;;;;5525568;25;20482;-57
2024/04/14 12:13:06;;;;;;;6.67;3.40;;;17.40;1.00;;;;;;5524997;25;20466;-57
2024/04/14 12:15:35;;;;;;;9.00;3.00;;;17.40;8.10;;;;;;5524804;25;20599;-57
2024/04/14 12:18:01;;;;;;;14.83;3.90;;;17.20;1.00;;;;;;5526942;25;20447;-57
2024/04/14 12:20:30;;;;;;;5.87;2.60;;;17.50;18.40;;;;;;5527189;25;20572;-58
2024/04/14 12:22:59;;;;;;;4.57;2.50;;;17.90;1.00;;;;;;5527621;25;20470;-57
2024/04/14 12:25:28;;;;;;;7.13;3.63;;;18.20;1.00;;;;;;5525616;25;20447;-56
2024/04/14 12:27:57;;;;;;;5.93;4.67;;;18.00;1.70;;;;;;5524246;25;20790;-57
2024/04/14 12:30:24;;;;;;;9.83;3.50;;;18.20;1.90;;;;;;5525049;25;20451;-58
2024/04/14 12:32:54;;;;;;;4.17;3.20;;;18.00;1.00;;;;;;5525049;25;21018;-57
2024/04/14 12:35:20;;;;;;;5.50;3.10;;;17.50;1.00;;;;;;5525267;25;20843;-57
2024/04/14 12:37:49;;;;;;;6.73;3.37;;;17.30;1.00;;;;;;5524676;25;20576;-57
2024/04/14 12:40:17;;;;;;;7.20;3.30;;;17.00;1.00;;;;;;5528219;25;20450;-57
2024/04/14 12:42:48;;;;;;;5.40;2.97;;;16.80;1.00;;;;;;5531858;25;20927;-55
2024/04/14 12:45:15;;;;;;;6.47;2.77;;;17.40;1.00;;;;;;5528250;25;20513;-56
2024/04/14 12:47:44;;;;;;;6.07;3.10;;;17.90;1.00;;;;;;5530992;25;20507;-56
2024/04/14 12:50:10;;;;;;;4.90;3.20;;;18.50;5.00;;;;;;5531487;25;20843;-56
2024/04/14 12:52:39;;;;;;;6.17;2.63;;;18.50;16.80;;;;;;5530841;25;20451;-55
2024/04/14 12:55:06;;;;;;;4.33;2.63;;;19.20;16.90;;;;;;5531514;25;20447;-57